sensor_id;sensor_type;location;lat;lon;timestamp;P1;durP1;ratioP1;P2;durP2;ratioP2
62024;SDS011;47978;49.118;12.146;2022-07-10T00:01:52;4.82;;;3.67;;
62024;SDS011;47978;49.118;12.146;2022-07-10T00:04:18;5.72;;;3.60;;
62024;SDS011;47978;49.118;12.146;2022-07-10T00:06:45;3.50;;;3.20;;
62024;SDS011;47978;49.118;12.146;2022-07-10T00:09:12;4.03;;;3.63;;
62024;SDS011;47978;49.118;12.146;2022-07-10T00:11:38;3.45;;;3.13;;
62024;SDS011;47978;49.118;12.146;2022-07-10T00:14:05;5.72;;;3.17;;
62024;SDS011;47978;49.118;12.146;2022-07-10T00:16:33;5.80;;;3.22;;
62024;SDS011;47978;49.118;12.146;2022-07-10T00:19:00;3.50;;;2.97;;
62024;SDS011;47978;49.118;12.146;2022-07-10T00:21:26;3.08;;;2.78;;
62024;SDS011;47978;49.118;12.146;2022-07-10T00:23:53;3.33;;;3.03;;
62024;SDS011;47978;49.118;12.146;2022-07-10T00:26:20;3.88;;;3.30;;
62024;SDS011;47978;49.118;12.146;2022-07-10T00:28:46;3.60;;;3.30;;
62024;SDS011;47978;49.118;12.146;2022-07-10T00:31:13;3.50;;;3.20;;
62024;SDS011;47978;49.118;12.146;2022-07-10T00:33:41;6.00;;;3.10;;
62024;SDS011;47978;49.118;12.146;2022-07-10T00:36:07;4.43;;;2.92;;
62024;SDS011;47978;49.118;12.146;2022-07-10T00:38:34;3.50;;;3.20;;
62024;SDS011;47978;49.118;12.146;2022-07-10T00:41:01;3.63;;;3.08;;
62024;SDS011;47978;49.118;12.146;2022-07-10T00:43:27;5.07;;;3.33;;
62024;SDS011;47978;49.118;12.146;2022-07-10T00:45:54;5.97;;;3.30;;
62024;SDS011;47978;49.118;12.146;2022-07-10T00:48:21;5.00;;;3.17;;
62024;SDS011;47978;49.118;12.146;2022-07-10T00:50:49;4.55;;;3.50;;
62024;SDS011;47978;49.118;12.146;2022-07-10T00:53:16;4.22;;;3.20;;
62024;SDS011;47978;49.118;12.146;2022-07-10T00:55:42;5.07;;;4.57;;
62024;SDS011;47978;49.118;12.146;2022-07-10T00:58:10;5.07;;;3.92;;
62024;SDS011;47978;49.118;12.146;2022-07-10T01:00:37;4.20;;;3.33;;
62024;SDS011;47978;49.118;12.146;2022-07-10T01:03:05;4.38;;;3.03;;
62024;SDS011;47978;49.118;12.146;2022-07-10T01:05:32;4.75;;;3.00;;
62024;SDS011;47978;49.118;12.146;2022-07-10T01:08:00;3.65;;;3.35;;
62024;SDS011;47978;49.118;12.146;2022-07-10T01:10:26;3.33;;;3.03;;
62024;SDS011;47978;49.118;12.146;2022-07-10T01:12:53;3.58;;;2.90;;
62024;SDS011;47978;49.118;12.146;2022-07-10T01:15:20;3.35;;;3.03;;
62024;SDS011;47978;49.118;12.146;2022-07-10T01:17:46;3.80;;;3.40;;
62024;SDS011;47978;49.118;12.146;2022-07-10T01:20:13;3.60;;;3.30;;
62024;SDS011;47978;49.118;12.146;2022-07-10T01:22:41;3.78;;;3.10;;
62024;SDS011;47978;49.118;12.146;2022-07-10T01:25:08;4.22;;;3.22;;
62024;SDS011;47978;49.118;12.146;2022-07-10T01:27:35;4.45;;;3.33;;
62024;SDS011;47978;49.118;12.146;2022-07-10T01:30:01;4.25;;;3.00;;
62024;SDS011;47978;49.118;12.146;2022-07-10T01:32:35;3.58;;;3.20;;
62024;SDS011;47978;49.118;12.146;2022-07-10T01:35:03;3.20;;;2.90;;
62024;SDS011;47978;49.118;12.146;2022-07-10T01:37:30;3.38;;;3.08;;
62024;SDS011;47978;49.118;12.146;2022-07-10T01:39:58;3.42;;;3.13;;
62024;SDS011;47978;49.118;12.146;2022-07-10T01:42:25;4.88;;;3.55;;
62024;SDS011;47978;49.118;12.146;2022-07-10T01:44:51;4.13;;;3.45;;
62024;SDS011;47978;49.118;12.146;2022-07-10T01:47:18;3.53;;;3.22;;
62024;SDS011;47978;49.118;12.146;2022-07-10T01:49:45;3.63;;;3.08;;
62024;SDS011;47978;49.118;12.146;2022-07-10T01:52:11;3.95;;;3.33;;
62024;SDS011;47978;49.118;12.146;2022-07-10T01:54:38;3.47;;;3.17;;
62024;SDS011;47978;49.118;12.146;2022-07-10T01:57:06;3.42;;;3.13;;
62024;SDS011;47978;49.118;12.146;2022-07-10T01:59:33;3.40;;;3.08;;
62024;SDS011;47978;49.118;12.146;2022-07-10T02:01:59;3.55;;;3.08;;
62024;SDS011;47978;49.118;12.146;2022-07-10T02:04:26;4.72;;;3.38;;
62024;SDS011;47978;49.118;12.146;2022-07-10T02:06:53;4.03;;;3.63;;
62024;SDS011;47978;49.118;12.146;2022-07-10T02:09:19;3.78;;;3.10;;
62024;SDS011;47978;49.118;12.146;2022-07-10T02:11:46;4.97;;;3.00;;
62024;SDS011;47978;49.118;12.146;2022-07-10T02:14:14;4.78;;;3.03;;
62024;SDS011;47978;49.118;12.146;2022-07-10T02:16:41;3.33;;;3.03;;
62024;SDS011;47978;49.118;12.146;2022-07-10T02:19:07;5.13;;;3.00;;
62024;SDS011;47978;49.118;12.146;2022-07-10T02:21:34;3.40;;;3.10;;
62024;SDS011;47978;49.118;12.146;2022-07-10T02:24:01;3.60;;;3.30;;
62024;SDS011;47978;49.118;12.146;2022-07-10T02:26:27;3.80;;;3.50;;
62024;SDS011;47978;49.118;12.146;2022-07-10T02:28:54;4.85;;;3.10;;
62024;SDS011;47978;49.118;12.146;2022-07-10T02:31:22;4.13;;;3.42;;
62024;SDS011;47978;49.118;12.146;2022-07-10T02:33:48;3.97;;;3.40;;
62024;SDS011;47978;49.118;12.146;2022-07-10T02:36:15;3.50;;;3.20;;
62024;SDS011;47978;49.118;12.146;2022-07-10T02:38:41;3.63;;;2.97;;
62024;SDS011;47978;49.118;12.146;2022-07-10T02:41:08;3.80;;;3.03;;
62024;SDS011;47978;49.118;12.146;2022-07-10T02:43:35;5.15;;;3.25;;
62024;SDS011;47978;49.118;12.146;2022-07-10T02:46:01;4.28;;;3.88;;
62024;SDS011;47978;49.118;12.146;2022-07-10T02:48:29;3.83;;;3.35;;
62024;SDS011;47978;49.118;12.146;2022-07-10T02:50:56;3.60;;;3.00;;
62024;SDS011;47978;49.118;12.146;2022-07-10T02:53:23;3.13;;;2.83;;
62024;SDS011;47978;49.118;12.146;2022-07-10T02:55:49;4.45;;;3.20;;
62024;SDS011;47978;49.118;12.146;2022-07-10T02:58:16;3.55;;;3.25;;
62024;SDS011;47978;49.118;12.146;2022-07-10T03:00:43;3.65;;;3.10;;
62024;SDS011;47978;49.118;12.146;2022-07-10T03:03:10;3.67;;;3.10;;
62024;SDS011;47978;49.118;12.146;2022-07-10T03:05:37;6.55;;;3.03;;
62024;SDS011;47978;49.118;12.146;2022-07-10T03:08:04;5.10;;;3.13;;
62024;SDS011;47978;49.118;12.146;2022-07-10T03:10:31;3.42;;;3.13;;
62024;SDS011;47978;49.118;12.146;2022-07-10T03:12:57;3.60;;;3.10;;
62024;SDS011;47978;49.118;12.146;2022-07-10T03:15:24;3.10;;;2.75;;
62024;SDS011;47978;49.118;12.146;2022-07-10T03:17:50;3.75;;;3.30;;
62024;SDS011;47978;49.118;12.146;2022-07-10T03:20:17;3.35;;;3.05;;
62024;SDS011;47978;49.118;12.146;2022-07-10T03:22:45;3.50;;;3.17;;
62024;SDS011;47978;49.118;12.146;2022-07-10T03:25:12;3.30;;;3.00;;
62024;SDS011;47978;49.118;12.146;2022-07-10T03:27:38;3.35;;;3.05;;
62024;SDS011;47978;49.118;12.146;2022-07-10T03:30:05;3.25;;;2.90;;
62024;SDS011;47978;49.118;12.146;2022-07-10T03:32:33;3.85;;;3.28;;
62024;SDS011;47978;49.118;12.146;2022-07-10T03:34:59;3.65;;;3.05;;
62024;SDS011;47978;49.118;12.146;2022-07-10T03:37:27;3.92;;;3.20;;
62024;SDS011;47978;49.118;12.146;2022-07-10T03:39:55;3.83;;;3.42;;
62024;SDS011;47978;49.118;12.146;2022-07-10T03:42:21;4.03;;;3.63;;
62024;SDS011;47978;49.118;12.146;2022-07-10T03:44:48;3.65;;;3.28;;
62024;SDS011;47978;49.118;12.146;2022-07-10T03:47:14;4.20;;;3.80;;
62024;SDS011;47978;49.118;12.146;2022-07-10T03:49:41;3.97;;;2.92;;
62024;SDS011;47978;49.118;12.146;2022-07-10T03:52:08;7.93;;;3.78;;
62024;SDS011;47978;49.118;12.146;2022-07-10T03:54:34;6.97;;;3.45;;
62024;SDS011;47978;49.118;12.146;2022-07-10T03:57:03;3.53;;;3.22;;
62024;SDS011;47978;49.118;12.146;2022-07-10T03:59:30;4.65;;;3.58;;
62024;SDS011;47978;49.118;12.146;2022-07-10T04:01:56;3.75;;;3.45;;
62024;SDS011;47978;49.118;12.146;2022-07-10T04:04:23;3.97;;;3.67;;
62024;SDS011;47978;49.118;12.146;2022-07-10T04:06:49;4.28;;;3.88;;
62024;SDS011;47978;49.118;12.146;2022-07-10T04:09:16;4.13;;;3.70;;
62024;SDS011;47978;49.118;12.146;2022-07-10T04:11:42;4.60;;;3.70;;
62024;SDS011;47978;49.118;12.146;2022-07-10T04:14:10;6.28;;;4.10;;
62024;SDS011;47978;49.118;12.146;2022-07-10T04:16:37;6.18;;;3.60;;
62024;SDS011;47978;49.118;12.146;2022-07-10T04:19:03;4.07;;;3.33;;
62024;SDS011;47978;49.118;12.146;2022-07-10T04:21:30;4.90;;;2.88;;
62024;SDS011;47978;49.118;12.146;2022-07-10T04:23:57;5.38;;;3.03;;
62024;SDS011;47978;49.118;12.146;2022-07-10T04:26:23;4.15;;;3.55;;
62024;SDS011;47978;49.118;12.146;2022-07-10T04:28:50;5.13;;;2.85;;
62024;SDS011;47978;49.118;12.146;2022-07-10T04:31:18;3.40;;;3.08;;
62024;SDS011;47978;49.118;12.146;2022-07-10T04:33:44;3.20;;;2.90;;
62024;SDS011;47978;49.118;12.146;2022-07-10T04:36:11;6.45;;;2.90;;
62024;SDS011;47978;49.118;12.146;2022-07-10T04:38:37;3.22;;;2.83;;
62024;SDS011;47978;49.118;12.146;2022-07-10T04:41:04;3.47;;;3.00;;
62024;SDS011;47978;49.118;12.146;2022-07-10T04:43:31;3.65;;;2.92;;
62024;SDS011;47978;49.118;12.146;2022-07-10T04:45:57;6.68;;;3.28;;
62024;SDS011;47978;49.118;12.146;2022-07-10T04:48:25;3.53;;;2.80;;
62024;SDS011;47978;49.118;12.146;2022-07-10T04:50:52;4.10;;;2.28;;
62024;SDS011;47978;49.118;12.146;2022-07-10T04:53:19;3.30;;;2.60;;
62024;SDS011;47978;49.118;12.146;2022-07-10T04:55:45;5.05;;;2.78;;
62024;SDS011;47978;49.118;12.146;2022-07-10T04:58:12;3.83;;;2.72;;
62024;SDS011;47978;49.118;12.146;2022-07-10T05:00:38;5.53;;;2.92;;
62024;SDS011;47978;49.118;12.146;2022-07-10T05:03:05;4.30;;;2.60;;
62024;SDS011;47978;49.118;12.146;2022-07-10T05:05:33;4.65;;;2.63;;
62024;SDS011;47978;49.118;12.146;2022-07-10T05:07:59;4.60;;;2.65;;
62024;SDS011;47978;49.118;12.146;2022-07-10T05:10:26;4.88;;;2.70;;
62024;SDS011;47978;49.118;12.146;2022-07-10T05:12:52;5.50;;;2.63;;
62024;SDS011;47978;49.118;12.146;2022-07-10T05:15:19;3.03;;;2.22;;
62024;SDS011;47978;49.118;12.146;2022-07-10T05:17:46;3.70;;;2.35;;
62024;SDS011;47978;49.118;12.146;2022-07-10T05:20:12;4.20;;;2.35;;
62024;SDS011;47978;49.118;12.146;2022-07-10T05:22:40;4.18;;;2.88;;
62024;SDS011;47978;49.118;12.146;2022-07-10T05:25:07;4.22;;;2.40;;
62024;SDS011;47978;49.118;12.146;2022-07-10T05:27:33;3.58;;;2.10;;
62024;SDS011;47978;49.118;12.146;2022-07-10T05:30:00;2.55;;;2.30;;
62024;SDS011;47978;49.118;12.146;2022-07-10T05:32:26;4.72;;;2.53;;
62024;SDS011;47978;49.118;12.146;2022-07-10T05:34:53;2.83;;;2.22;;
62024;SDS011;47978;49.118;12.146;2022-07-10T05:37:19;3.50;;;2.33;;
62024;SDS011;47978;49.118;12.146;2022-07-10T05:39:47;2.30;;;1.85;;
62024;SDS011;47978;49.118;12.146;2022-07-10T05:42:14;3.75;;;2.10;;
62024;SDS011;47978;49.118;12.146;2022-07-10T05:44:40;3.58;;;2.20;;
62024;SDS011;47978;49.118;12.146;2022-07-10T05:47:07;2.72;;;2.05;;
62024;SDS011;47978;49.118;12.146;2022-07-10T05:49:34;2.95;;;2.03;;
62024;SDS011;47978;49.118;12.146;2022-07-10T05:52:00;3.45;;;1.83;;
62024;SDS011;47978;49.118;12.146;2022-07-10T05:54:27;4.18;;;1.92;;
62024;SDS011;47978;49.118;12.146;2022-07-10T05:56:54;3.17;;;1.80;;
62024;SDS011;47978;49.118;12.146;2022-07-10T05:59:21;3.90;;;1.52;;
62024;SDS011;47978;49.118;12.146;2022-07-10T06:01:47;3.28;;;1.80;;
62024;SDS011;47978;49.118;12.146;2022-07-10T06:04:14;3.00;;;1.60;;
62024;SDS011;47978;49.118;12.146;2022-07-10T06:06:41;4.43;;;1.95;;
62024;SDS011;47978;49.118;12.146;2022-07-10T06:09:07;4.15;;;1.55;;
62024;SDS011;47978;49.118;12.146;2022-07-10T06:11:34;3.65;;;2.00;;
62024;SDS011;47978;49.118;12.146;2022-07-10T06:14:02;4.10;;;1.58;;
62024;SDS011;47978;49.118;12.146;2022-07-10T06:16:28;5.15;;;1.75;;
62024;SDS011;47978;49.118;12.146;2022-07-10T06:18:55;3.35;;;1.70;;
62024;SDS011;47978;49.118;12.146;2022-07-10T06:21:22;4.13;;;1.60;;
62024;SDS011;47978;49.118;12.146;2022-07-10T06:23:49;2.95;;;1.70;;
62024;SDS011;47978;49.118;12.146;2022-07-10T06:26:15;2.80;;;1.85;;
62024;SDS011;47978;49.118;12.146;2022-07-10T06:28:42;2.92;;;1.58;;
62024;SDS011;47978;49.118;12.146;2022-07-10T06:33:45;3.47;;;1.30;;
62024;SDS011;47978;49.118;12.146;2022-07-10T06:36:11;3.08;;;1.30;;
62024;SDS011;47978;49.118;12.146;2022-07-10T06:38:38;2.72;;;1.80;;
62024;SDS011;47978;49.118;12.146;2022-07-10T06:41:05;4.70;;;1.60;;
62024;SDS011;47978;49.118;12.146;2022-07-10T06:43:31;3.15;;;1.30;;
62024;SDS011;47978;49.118;12.146;2022-07-10T06:45:58;4.13;;;1.50;;
62024;SDS011;47978;49.118;12.146;2022-07-10T06:48:25;3.10;;;1.90;;
62024;SDS011;47978;49.118;12.146;2022-07-10T06:50:54;4.55;;;1.55;;
62024;SDS011;47978;49.118;12.146;2022-07-10T06:53:21;2.80;;;1.55;;
62024;SDS011;47978;49.118;12.146;2022-07-10T06:55:48;7.20;;;1.45;;
62024;SDS011;47978;49.118;12.146;2022-07-10T06:58:14;2.42;;;1.27;;
62024;SDS011;47978;49.118;12.146;2022-07-10T07:00:41;3.28;;;1.58;;
62024;SDS011;47978;49.118;12.146;2022-07-10T07:03:07;2.05;;;1.20;;
62024;SDS011;47978;49.118;12.146;2022-07-10T07:05:34;2.75;;;1.27;;
62024;SDS011;47978;49.118;12.146;2022-07-10T07:08:02;4.03;;;1.20;;
62024;SDS011;47978;49.118;12.146;2022-07-10T07:10:29;3.13;;;1.40;;
62024;SDS011;47978;49.118;12.146;2022-07-10T07:12:56;3.22;;;1.38;;
62024;SDS011;47978;49.118;12.146;2022-07-10T07:15:22;2.30;;;1.52;;
62024;SDS011;47978;49.118;12.146;2022-07-10T07:17:49;3.40;;;1.35;;
62024;SDS011;47978;49.118;12.146;2022-07-10T07:20:16;8.20;;;1.60;;
62024;SDS011;47978;49.118;12.146;2022-07-10T07:22:42;3.58;;;1.02;;
62024;SDS011;47978;49.118;12.146;2022-07-10T07:25:10;3.88;;;1.35;;
62024;SDS011;47978;49.118;12.146;2022-07-10T07:27:37;2.30;;;1.00;;
62024;SDS011;47978;49.118;12.146;2022-07-10T07:30:05;3.13;;;1.50;;
62024;SDS011;47978;49.118;12.146;2022-07-10T07:32:33;2.85;;;1.33;;
62024;SDS011;47978;49.118;12.146;2022-07-10T07:35:00;4.22;;;1.40;;
62024;SDS011;47978;49.118;12.146;2022-07-10T07:37:36;3.97;;;1.27;;
62024;SDS011;47978;49.118;12.146;2022-07-10T07:40:04;4.85;;;1.23;;
62024;SDS011;47978;49.118;12.146;2022-07-10T07:42:34;6.53;;;1.50;;
62024;SDS011;47978;49.118;12.146;2022-07-10T07:45:01;2.53;;;1.20;;
62024;SDS011;47978;49.118;12.146;2022-07-10T07:47:27;6.03;;;1.17;;
62024;SDS011;47978;49.118;12.146;2022-07-10T07:49:54;4.20;;;1.33;;
62024;SDS011;47978;49.118;12.146;2022-07-10T07:52:21;4.82;;;1.50;;
62024;SDS011;47978;49.118;12.146;2022-07-10T07:54:47;1.70;;;0.90;;
62024;SDS011;47978;49.118;12.146;2022-07-10T07:57:14;3.15;;;1.00;;
62024;SDS011;47978;49.118;12.146;2022-07-10T07:59:42;3.85;;;1.70;;
62024;SDS011;47978;49.118;12.146;2022-07-10T08:02:08;2.92;;;0.90;;
62024;SDS011;47978;49.118;12.146;2022-07-10T08:04:35;3.65;;;1.30;;
62024;SDS011;47978;49.118;12.146;2022-07-10T08:07:02;3.85;;;1.30;;
62024;SDS011;47978;49.118;12.146;2022-07-10T08:09:28;1.80;;;0.82;;
62024;SDS011;47978;49.118;12.146;2022-07-10T08:11:55;5.75;;;1.00;;
62024;SDS011;47978;49.118;12.146;2022-07-10T08:14:22;2.40;;;0.80;;
62024;SDS011;47978;49.118;12.146;2022-07-10T08:16:50;2.17;;;0.98;;
62024;SDS011;47978;49.118;12.146;2022-07-10T08:19:16;2.53;;;1.15;;
62024;SDS011;47978;49.118;12.146;2022-07-10T08:21:43;2.58;;;0.90;;
62024;SDS011;47978;49.118;12.146;2022-07-10T08:24:09;1.33;;;0.68;;
62024;SDS011;47978;49.118;12.146;2022-07-10T08:26:36;1.83;;;0.90;;
62024;SDS011;47978;49.118;12.146;2022-07-10T08:29:02;2.42;;;0.98;;
62024;SDS011;47978;49.118;12.146;2022-07-10T08:31:29;4.50;;;1.25;;
62024;SDS011;47978;49.118;12.146;2022-07-10T08:33:57;1.50;;;0.80;;
62024;SDS011;47978;49.118;12.146;2022-07-10T08:36:24;3.78;;;1.10;;
62024;SDS011;47978;49.118;12.146;2022-07-10T08:39:10;1.73;;;0.98;;
62024;SDS011;47978;49.118;12.146;2022-07-10T08:41:37;1.63;;;0.60;;
62024;SDS011;47978;49.118;12.146;2022-07-10T08:44:05;2.00;;;0.80;;
62024;SDS011;47978;49.118;12.146;2022-07-10T08:46:31;2.55;;;0.75;;
62024;SDS011;47978;49.118;12.146;2022-07-10T08:48:59;2.78;;;0.80;;
62024;SDS011;47978;49.118;12.146;2022-07-10T08:51:34;2.38;;;0.95;;
62024;SDS011;47978;49.118;12.146;2022-07-10T08:56:30;2.85;;;0.93;;
62024;SDS011;47978;49.118;12.146;2022-07-10T08:58:57;1.98;;;0.85;;
62024;SDS011;47978;49.118;12.146;2022-07-10T09:01:25;2.13;;;0.80;;
62024;SDS011;47978;49.118;12.146;2022-07-10T09:03:52;1.38;;;0.55;;
62024;SDS011;47978;49.118;12.146;2022-07-10T09:06:20;1.08;;;0.60;;
62024;SDS011;47978;49.118;12.146;2022-07-10T09:08:57;1.00;;;0.57;;
62024;SDS011;47978;49.118;12.146;2022-07-10T09:11:25;2.22;;;0.75;;
62024;SDS011;47978;49.118;12.146;2022-07-10T09:13:52;2.58;;;0.90;;
62024;SDS011;47978;49.118;12.146;2022-07-10T09:16:21;2.92;;;1.23;;
62024;SDS011;47978;49.118;12.146;2022-07-10T09:18:48;1.75;;;0.70;;
62024;SDS011;47978;49.118;12.146;2022-07-10T09:21:15;1.88;;;0.80;;
62024;SDS011;47978;49.118;12.146;2022-07-10T09:23:43;2.30;;;0.95;;
62024;SDS011;47978;49.118;12.146;2022-07-10T09:26:09;1.95;;;0.90;;
62024;SDS011;47978;49.118;12.146;2022-07-10T09:28:36;1.70;;;0.70;;
62024;SDS011;47978;49.118;12.146;2022-07-10T09:31:04;1.45;;;0.75;;
62024;SDS011;47978;49.118;12.146;2022-07-10T09:33:31;2.05;;;0.65;;
62024;SDS011;47978;49.118;12.146;2022-07-10T09:36:02;4.25;;;1.23;;
62024;SDS011;47978;49.118;12.146;2022-07-10T09:38:31;2.28;;;0.88;;
62024;SDS011;47978;49.118;12.146;2022-07-10T09:41:17;2.10;;;0.70;;
62024;SDS011;47978;49.118;12.146;2022-07-10T09:43:44;2.08;;;0.70;;
62024;SDS011;47978;49.118;12.146;2022-07-10T09:46:12;1.75;;;0.70;;
62024;SDS011;47978;49.118;12.146;2022-07-10T09:48:39;1.25;;;0.75;;
62024;SDS011;47978;49.118;12.146;2022-07-10T09:51:06;2.17;;;0.73;;
62024;SDS011;47978;49.118;12.146;2022-07-10T09:53:35;1.38;;;0.75;;
62024;SDS011;47978;49.118;12.146;2022-07-10T09:56:06;1.20;;;0.73;;
62024;SDS011;47978;49.118;12.146;2022-07-10T09:58:34;5.13;;;1.00;;
62024;SDS011;47978;49.118;12.146;2022-07-10T10:01:02;2.58;;;0.95;;
62024;SDS011;47978;49.118;12.146;2022-07-10T10:03:33;3.67;;;0.95;;
62024;SDS011;47978;49.118;12.146;2022-07-10T10:06:02;1.55;;;0.73;;
62024;SDS011;47978;49.118;12.146;2022-07-10T10:08:31;3.08;;;2.38;;
62024;SDS011;47978;49.118;12.146;2022-07-10T10:11:03;2.47;;;1.23;;
62024;SDS011;47978;49.118;12.146;2022-07-10T10:13:40;4.45;;;1.40;;
62024;SDS011;47978;49.118;12.146;2022-07-10T10:16:09;2.00;;;1.10;;
62024;SDS011;47978;49.118;12.146;2022-07-10T10:18:36;2.80;;;1.23;;
62024;SDS011;47978;49.118;12.146;2022-07-10T10:21:04;3.25;;;1.60;;
62024;SDS011;47978;49.118;12.146;2022-07-10T10:23:31;2.10;;;0.80;;
62024;SDS011;47978;49.118;12.146;2022-07-10T10:25:58;2.63;;;0.90;;
62024;SDS011;47978;49.118;12.146;2022-07-10T10:28:26;3.00;;;1.08;;
62024;SDS011;47978;49.118;12.146;2022-07-10T10:30:55;0.85;;;0.68;;
62024;SDS011;47978;49.118;12.146;2022-07-10T10:36:12;6.38;;;1.10;;
62024;SDS011;47978;49.118;12.146;2022-07-10T10:39:01;2.97;;;0.80;;
62024;SDS011;47978;49.118;12.146;2022-07-10T10:41:30;1.38;;;0.80;;
62024;SDS011;47978;49.118;12.146;2022-07-10T10:44:22;2.75;;;0.77;;
62024;SDS011;47978;49.118;12.146;2022-07-10T10:46:54;3.08;;;1.00;;
62024;SDS011;47978;49.118;12.146;2022-07-10T10:49:22;1.13;;;0.60;;
62024;SDS011;47978;49.118;12.146;2022-07-10T10:51:56;1.95;;;0.70;;
62024;SDS011;47978;49.118;12.146;2022-07-10T10:54:23;1.48;;;0.80;;
62024;SDS011;47978;49.118;12.146;2022-07-10T10:59:45;1.50;;;0.80;;
62024;SDS011;47978;49.118;12.146;2022-07-10T11:02:21;1.88;;;0.77;;
62024;SDS011;47978;49.118;12.146;2022-07-10T11:04:50;2.95;;;0.95;;
62024;SDS011;47978;49.118;12.146;2022-07-10T11:10:26;2.03;;;1.00;;
62024;SDS011;47978;49.118;12.146;2022-07-10T11:12:56;1.63;;;0.85;;
62024;SDS011;47978;49.118;12.146;2022-07-10T11:15:26;1.92;;;1.05;;
62024;SDS011;47978;49.118;12.146;2022-07-10T11:17:53;2.38;;;0.70;;
62024;SDS011;47978;49.118;12.146;2022-07-10T11:20:20;0.98;;;0.63;;
62024;SDS011;47978;49.118;12.146;2022-07-10T11:22:49;1.55;;;0.70;;
62024;SDS011;47978;49.118;12.146;2022-07-10T11:25:28;1.45;;;0.80;;
62024;SDS011;47978;49.118;12.146;2022-07-10T11:28:04;3.47;;;0.80;;
62024;SDS011;47978;49.118;12.146;2022-07-10T11:30:43;1.42;;;0.80;;
62024;SDS011;47978;49.118;12.146;2022-07-10T11:33:15;1.73;;;0.90;;
62024;SDS011;47978;49.118;12.146;2022-07-10T11:35:45;1.17;;;0.75;;
62024;SDS011;47978;49.118;12.146;2022-07-10T11:38:13;1.83;;;0.80;;
62024;SDS011;47978;49.118;12.146;2022-07-10T11:40:45;1.60;;;0.77;;
62024;SDS011;47978;49.118;12.146;2022-07-10T11:43:11;2.38;;;1.00;;
62024;SDS011;47978;49.118;12.146;2022-07-10T11:45:38;2.28;;;0.80;;
62024;SDS011;47978;49.118;12.146;2022-07-10T11:48:07;0.77;;;0.40;;
62024;SDS011;47978;49.118;12.146;2022-07-10T11:50:42;1.17;;;0.80;;
62024;SDS011;47978;49.118;12.146;2022-07-10T11:53:09;2.50;;;0.80;;
62024;SDS011;47978;49.118;12.146;2022-07-10T11:55:36;1.67;;;0.73;;
62024;SDS011;47978;49.118;12.146;2022-07-10T11:58:12;1.77;;;0.90;;
62024;SDS011;47978;49.118;12.146;2022-07-10T12:00:42;0.90;;;0.80;;
62024;SDS011;47978;49.118;12.146;2022-07-10T12:03:17;2.55;;;0.70;;
62024;SDS011;47978;49.118;12.146;2022-07-10T12:05:48;1.67;;;0.80;;
62024;SDS011;47978;49.118;12.146;2022-07-10T12:08:15;1.80;;;0.70;;
62024;SDS011;47978;49.118;12.146;2022-07-10T12:10:42;1.33;;;0.70;;
62024;SDS011;47978;49.118;12.146;2022-07-10T12:13:09;2.08;;;0.88;;
62024;SDS011;47978;49.118;12.146;2022-07-10T12:15:37;0.70;;;0.40;;
62024;SDS011;47978;49.118;12.146;2022-07-10T12:18:05;0.93;;;0.70;;
62024;SDS011;47978;49.118;12.146;2022-07-10T12:20:34;1.95;;;0.80;;
62024;SDS011;47978;49.118;12.146;2022-07-10T12:23:01;2.90;;;0.70;;
62024;SDS011;47978;49.118;12.146;2022-07-10T12:25:28;1.50;;;0.80;;
62024;SDS011;47978;49.118;12.146;2022-07-10T12:27:55;0.93;;;0.60;;
62024;SDS011;47978;49.118;12.146;2022-07-10T12:30:22;1.30;;;0.60;;
62024;SDS011;47978;49.118;12.146;2022-07-10T12:32:50;1.55;;;0.70;;
62024;SDS011;47978;49.118;12.146;2022-07-10T12:35:16;1.77;;;0.88;;
62024;SDS011;47978;49.118;12.146;2022-07-10T12:37:50;1.55;;;0.70;;
62024;SDS011;47978;49.118;12.146;2022-07-10T12:43:02;2.05;;;0.80;;
62024;SDS011;47978;49.118;12.146;2022-07-10T12:45:29;1.15;;;0.65;;
62024;SDS011;47978;49.118;12.146;2022-07-10T12:47:56;1.38;;;0.52;;
62024;SDS011;47978;49.118;12.146;2022-07-10T12:50:22;1.30;;;0.70;;
62024;SDS011;47978;49.118;12.146;2022-07-10T12:52:51;1.80;;;0.57;;
62024;SDS011;47978;49.118;12.146;2022-07-10T12:55:37;1.48;;;0.40;;
62024;SDS011;47978;49.118;12.146;2022-07-10T12:58:04;0.37;;;0.37;;
62024;SDS011;47978;49.118;12.146;2022-07-10T13:00:33;1.25;;;0.70;;
62024;SDS011;47978;49.118;12.146;2022-07-10T13:03:02;1.13;;;0.43;;
62024;SDS011;47978;49.118;12.146;2022-07-10T13:05:30;1.40;;;0.63;;
62024;SDS011;47978;49.118;12.146;2022-07-10T13:08:06;1.15;;;0.60;;
62024;SDS011;47978;49.118;12.146;2022-07-10T13:10:34;1.88;;;0.57;;
62024;SDS011;47978;49.118;12.146;2022-07-10T13:13:01;1.40;;;0.60;;
62024;SDS011;47978;49.118;12.146;2022-07-10T13:15:27;0.73;;;0.63;;
62024;SDS011;47978;49.118;12.146;2022-07-10T13:17:54;0.95;;;0.45;;
62024;SDS011;47978;49.118;12.146;2022-07-10T13:20:21;1.33;;;0.80;;
62024;SDS011;47978;49.118;12.146;2022-07-10T13:22:48;0.50;;;0.50;;
62024;SDS011;47978;49.118;12.146;2022-07-10T13:25:16;1.08;;;0.63;;
62024;SDS011;47978;49.118;12.146;2022-07-10T13:27:43;2.00;;;0.63;;
62024;SDS011;47978;49.118;12.146;2022-07-10T13:30:09;2.13;;;0.65;;
62024;SDS011;47978;49.118;12.146;2022-07-10T13:32:36;0.98;;;0.60;;
62024;SDS011;47978;49.118;12.146;2022-07-10T13:35:03;0.90;;;0.50;;
62024;SDS011;47978;49.118;12.146;2022-07-10T13:37:30;1.42;;;0.70;;
62024;SDS011;47978;49.118;12.146;2022-07-10T13:39:57;3.03;;;0.75;;
62024;SDS011;47978;49.118;12.146;2022-07-10T13:42:25;1.02;;;0.68;;
62024;SDS011;47978;49.118;12.146;2022-07-10T13:44:51;1.80;;;0.60;;
62024;SDS011;47978;49.118;12.146;2022-07-10T13:47:18;1.65;;;0.50;;
62024;SDS011;47978;49.118;12.146;2022-07-10T13:49:45;1.45;;;0.80;;
62024;SDS011;47978;49.118;12.146;2022-07-10T13:52:11;0.98;;;0.57;;
62024;SDS011;47978;49.118;12.146;2022-07-10T13:54:38;1.25;;;0.50;;
62024;SDS011;47978;49.118;12.146;2022-07-10T13:57:04;0.93;;;0.60;;
62024;SDS011;47978;49.118;12.146;2022-07-10T13:59:32;1.70;;;0.70;;
62024;SDS011;47978;49.118;12.146;2022-07-10T14:01:59;0.82;;;0.55;;
62024;SDS011;47978;49.118;12.146;2022-07-10T14:04:26;0.57;;;0.40;;
62024;SDS011;47978;49.118;12.146;2022-07-10T14:06:52;3.53;;;0.90;;
62024;SDS011;47978;49.118;12.146;2022-07-10T14:09:19;2.35;;;0.50;;
62024;SDS011;47978;49.118;12.146;2022-07-10T14:11:45;0.77;;;0.50;;
62024;SDS011;47978;49.118;12.146;2022-07-10T14:14:12;1.10;;;0.50;;
62024;SDS011;47978;49.118;12.146;2022-07-10T14:16:40;0.52;;;0.40;;
62024;SDS011;47978;49.118;12.146;2022-07-10T14:19:06;0.75;;;0.45;;
62024;SDS011;47978;49.118;12.146;2022-07-10T14:21:37;0.57;;;0.40;;
62024;SDS011;47978;49.118;12.146;2022-07-10T14:24:06;0.70;;;0.40;;
62024;SDS011;47978;49.118;12.146;2022-07-10T14:26:32;0.85;;;0.65;;
62024;SDS011;47978;49.118;12.146;2022-07-10T14:28:59;1.48;;;0.68;;
62024;SDS011;47978;49.118;12.146;2022-07-10T14:31:25;0.70;;;0.55;;
62024;SDS011;47978;49.118;12.146;2022-07-10T14:34:09;0.98;;;0.45;;
62024;SDS011;47978;49.118;12.146;2022-07-10T14:36:35;1.30;;;0.52;;
62024;SDS011;47978;49.118;12.146;2022-07-10T14:39:02;0.50;;;0.43;;
62024;SDS011;47978;49.118;12.146;2022-07-10T14:41:29;1.15;;;0.60;;
62024;SDS011;47978;49.118;12.146;2022-07-10T14:43:55;2.20;;;0.50;;
62024;SDS011;47978;49.118;12.146;2022-07-10T14:46:22;1.23;;;0.70;;
62024;SDS011;47978;49.118;12.146;2022-07-10T14:48:49;0.63;;;0.40;;
62024;SDS011;47978;49.118;12.146;2022-07-10T14:51:17;1.20;;;0.65;;
62024;SDS011;47978;49.118;12.146;2022-07-10T14:53:52;1.25;;;0.70;;